Нижний Рушенер

Карта отелей и гостиниц, располагающихся рядом с аэропортом Нижний Рушенер :

Нижний Рушенер Марий Эл 57° 11' 58.2" N, 49° 7' 4.872" E
Код аэродрома ИКАО
ZF2Q
Код аэродрома RU
ЗФ2Я
Координаты
N57.19950° E049.11802°
Превышение над уровнем моря
159
Основная полоса
16/34
Курс магнитный
161,3/341,3
Длина основной ВПП
440
Ширина основной ВПП
18
Покрытие основной ВПП
Твёрдое (асфальт)
Освещение ВПП
Нет
Тип: 
Аэродром
Класс аэродрома: 
Принадлежность: 
ГА
Статус: 
Недействующий
Сайт: 
E-mail аэродрома: 
Страна: 
Россия
Регион: 
Марий Эл
Город: 
Дополнительная информация: 
Бывшая площадка АХР. Состояние ИВПП не известно.

Найти трансфер

С помощью этой формы Вы можете найти трансфер из аэропорта Нижний Рушенер в город, аэропорт или вокзал:

Карта места

Javascript is required to view this map.

Погода в аэропортах:

Авиационная погода в аэропорту Байкал

Регион: 
Погода METAR: 
UIUU 170900Z 04002MPS 6000 -SHSN BKN033CB M18/M21 Q1019 R26/490250 NOSIG RMK QFE720/0960
Время наблюдения
2021-01-17T09:00:00Z
Температура C
-18.0
Точка росы
-21.0
Направление ветра
40
Скорость ветра (узлы)
4
Метео видимость
3.73
Явления погоды
-SHSN
Условия полета
MVFR
Аэропорт подробнее: 

Авиационная погода в Мирном

Регион: 
Погода METAR: 
UERR 170900Z 26003MPS 2500 BR NSC M42/M45 Q1023 R25/390235 NOSIG RMK QFE736/0981
Время наблюдения
2021-01-17T09:00:00Z
Температура C
-42.0
Точка росы
-45.0
Направление ветра
260
Скорость ветра (узлы)
6
Метео видимость
1.55
Явления погоды
BR
Условия полета
IFR
Аэропорт подробнее: 

Авиационная погода в Челябинске

Регион: 
Погода METAR: 
USCC 170900Z 23009MPS 9999 DRSN FEW040CB M07/M11 Q0999 R27/390035 NOSIG RMK QFE730
Время наблюдения
2021-01-17T09:00:00Z
Температура C
-7.0
Точка росы
-11.0
Направление ветра
230
Скорость ветра (узлы)
17
Метео видимость
6.21
Явления погоды
DRSN
Условия полета
VFR
Аэропорт подробнее: 

Авиационная погода в Рощино

Регион: 
Погода METAR: 
USTR 170900Z 19004MPS 2500 -SHSN BKN017CB OVC045 M09/M11 Q0999 R21/390040 R12/390040 TEMPO 22013MPS 0600 +SHSN BLSN VV003
Время наблюдения
2021-01-17T09:00:00Z
Температура C
-9.0
Точка росы
-11.0
Направление ветра
190
Скорость ветра (узлы)
8
Метео видимость
1.55
Явления погоды
-SHSN
Условия полета
IFR
Аэропорт подробнее: